createdAt,value
2023-01-17T00:00:38.341Z,97349.72
2023-01-17T00:05:19.714Z,97357.06
2023-01-17T00:09:45.206Z,97348.73
2023-01-17T00:13:53.263Z,97348.71
2023-01-17T00:18:01.613Z,97345.09
2023-01-17T00:22:34.388Z,97343.36
2023-01-17T00:26:56.531Z,97344.42
2023-01-17T00:31:03.184Z,97343.23
2023-01-17T00:35:10.545Z,97331.83
2023-01-17T00:39:17.019Z,97333.55
2023-01-17T00:43:43.961Z,97332.73
2023-01-17T00:48:10.111Z,97331.33
2023-01-17T00:52:35.953Z,97331.23
2023-01-17T00:57:03.661Z,97332.24
2023-01-17T01:01:29.503Z,97342.27
2023-01-17T01:05:55.637Z,97350.03
2023-01-17T01:10:24.939Z,97346.73
2023-01-17T01:14:50.577Z,97341.98
2023-01-17T01:19:15.946Z,97343.55
2023-01-17T01:23:41.244Z,97349.09
2023-01-17T01:28:06.142Z,97349.48
2023-01-17T01:32:31.930Z,97357.58
2023-01-17T01:36:40.655Z,97360.51
2023-01-17T01:40:51.768Z,97357.01
2023-01-17T01:45:00.366Z,97342.14
2023-01-17T01:49:10.256Z,97334.13
2023-01-17T01:53:19.386Z,97336.12
2023-01-17T01:57:29.715Z,97339.14
2023-01-17T02:01:37.862Z,97344.55
2023-01-17T02:05:46.334Z,97341.33
2023-01-17T02:09:54.961Z,97344.84
2023-01-17T02:14:04.094Z,97348.79
2023-01-17T02:18:16.008Z,97340.86
2023-01-17T02:22:52.315Z,97337.42
2023-01-17T02:27:08.544Z,97341.32
2023-01-17T02:31:19.353Z,97335.73
2023-01-17T02:35:35.184Z,97327.09
2023-01-17T02:39:44.888Z,97313.98
2023-01-17T02:43:53.567Z,97314.82
2023-01-17T02:48:00.775Z,97312.20
2023-01-17T02:52:28.645Z,97312.18
2023-01-17T02:56:48.562Z,97305.84
2023-01-17T03:01:08.575Z,97303.38
2023-01-17T03:05:23.792Z,97318.57
2023-01-17T03:09:32.441Z,97308.23
2023-01-17T03:13:41.238Z,97315.79
2023-01-17T03:17:52.540Z,97317.96
2023-01-17T03:22:01.271Z,97317.13
2023-01-17T03:26:09.091Z,97327.21
2023-01-17T03:30:17.823Z,97323.98
2023-01-17T03:34:26.773Z,97329.70
2023-01-17T03:38:34.867Z,97322.69
2023-01-17T03:42:42.889Z,97331.71
2023-01-17T03:46:50.913Z,97334.94
2023-01-17T03:50:58.591Z,97336.41
2023-01-17T03:55:07.974Z,97336.98
2023-01-17T03:59:16.025Z,97337.09
2023-01-17T04:03:23.688Z,97338.48
2023-01-17T04:07:32.521Z,97339.56
2023-01-17T04:11:40.196Z,97341.35
2023-01-17T04:15:50.397Z,97340.08
2023-01-17T04:19:58.263Z,97331.70
2023-01-17T04:24:06.429Z,97337.91
2023-01-17T04:28:14.229Z,97335.63
2023-01-17T04:32:22.561Z,97338.16
2023-01-17T04:36:30.587Z,97339.66
2023-01-17T04:40:38.728Z,97333.85
2023-01-17T04:44:46.191Z,97331.41
2023-01-17T04:48:53.687Z,97330.79
2023-01-17T04:53:01.576Z,97335.97
2023-01-17T04:57:09.771Z,97335.73
2023-01-17T05:01:18.262Z,97343.33
2023-01-17T05:05:26.526Z,97346.40
2023-01-17T05:09:34.440Z,97345.71
2023-01-17T05:13:42.363Z,97343.23
2023-01-17T05:17:50.142Z,97340.77
2023-01-17T05:22:04.240Z,97341.91
2023-01-17T05:26:13.083Z,97341.79
2023-01-17T05:30:22.201Z,97337.39
2023-01-17T05:34:29.728Z,97340.70
2023-01-17T05:38:38.527Z,97342.67
2023-01-17T05:42:49.672Z,97348.70
2023-01-17T05:46:57.934Z,97348.54
2023-01-17T05:51:06.349Z,97353.91
2023-01-17T05:55:14.184Z,97351.88
2023-01-17T05:59:32.373Z,97359.52
2023-01-17T06:03:44.739Z,97361.84
2023-01-17T06:07:52.766Z,97362.64
2023-01-17T06:12:00.155Z,97363.90
2023-01-17T06:16:08.276Z,97369.30
2023-01-17T06:20:16.187Z,97374.45
2023-01-17T06:24:24.332Z,97379.00
2023-01-17T06:28:33.010Z,97384.95
2023-01-17T06:32:40.351Z,97383.72
2023-01-17T06:36:48.033Z,97388.42
2023-01-17T06:41:00.499Z,97392.83
2023-01-17T06:45:11.885Z,97399.83
2023-01-17T06:49:20.588Z,97407.88
2023-01-17T06:53:28.765Z,97417.16
2023-01-17T06:57:36.555Z,97426.48
2023-01-17T07:01:45.057Z,97437.67
2023-01-17T07:05:53.529Z,97445.05
2023-01-17T07:10:03.687Z,97450.70
2023-01-17T07:14:16.766Z,97454.29
2023-01-17T07:18:24.642Z,97456.69
2023-01-17T07:22:32.069Z,97460.91
2023-01-17T07:26:40.663Z,97465.21
2023-01-17T07:30:48.782Z,97465.75
2023-01-17T07:34:57.747Z,97457.08
2023-01-17T07:39:06.480Z,97458.58
2023-01-17T07:43:17.532Z,97471.12
2023-01-17T07:47:25.473Z,97478.49
2023-01-17T07:51:33.157Z,97480.35
2023-01-17T07:55:40.895Z,97489.11
2023-01-17T07:59:51.072Z,97492.70
2023-01-17T08:03:59.045Z,97500.31
2023-01-17T08:08:07.746Z,97511.66
2023-01-17T08:12:15.742Z,97515.33
2023-01-17T08:16:23.468Z,97514.55
2023-01-17T08:20:31.314Z,97525.84
2023-01-17T08:24:38.987Z,97526.36
2023-01-17T08:28:47.133Z,97526.70
2023-01-17T08:32:55.465Z,97533.48
2023-01-17T08:37:02.954Z,97532.05
2023-01-17T08:41:10.527Z,97539.30
2023-01-17T08:45:18.462Z,97544.52
2023-01-17T08:49:26.127Z,97540.63
2023-01-17T08:53:33.496Z,97526.03
2023-01-17T08:57:41.742Z,97524.03
2023-01-17T09:01:50.241Z,97528.88
2023-01-17T09:06:05.774Z,97536.56
2023-01-17T09:10:14.782Z,97539.50
2023-01-17T09:14:22.653Z,97546.23
2023-01-17T09:18:31.668Z,97547.91
2023-01-17T09:22:39.836Z,97540.81
2023-01-17T09:26:47.792Z,97540.05
2023-01-17T09:30:55.945Z,97551.56
2023-01-17T09:35:05.564Z,97553.55
2023-01-17T09:39:15.507Z,97548.75
2023-01-17T09:43:28.384Z,97547.92
2023-01-17T09:47:43.373Z,97545.98
2023-01-17T09:51:51.492Z,97554.42
2023-01-17T09:56:02.375Z,97557.92
2023-01-17T10:00:17.323Z,97551.67
2023-01-17T10:04:49.503Z,97553.96
2023-01-17T10:09:09.184Z,97556.27
2023-01-17T10:13:29.150Z,97560.74
2023-01-17T10:17:45.476Z,97565.02
2023-01-17T10:22:04.512Z,97557.46
2023-01-17T10:26:15.409Z,97552.26
2023-01-17T10:30:27.929Z,97554.29
2023-01-17T10:34:38.389Z,97559.73
2023-01-17T10:38:49.687Z,97563.15
2023-01-17T10:43:01.213Z,97569.46
2023-01-17T10:47:16.615Z,97579.50
2023-01-17T10:51:35.249Z,97582.20
2023-01-17T10:55:48.035Z,97580.08
2023-01-17T10:59:57.557Z,97588.23
2023-01-17T11:04:05.465Z,97585.60
2023-01-17T11:08:15.475Z,97578.02
2023-01-17T11:12:31.457Z,97584.94
2023-01-17T11:16:39.938Z,97588.95
2023-01-17T11:20:48.430Z,97581.98
2023-01-17T11:24:56.819Z,97578.31
2023-01-17T11:29:24.918Z,97573.36
2023-01-17T11:33:45.795Z,97573.65
2023-01-17T11:38:05.601Z,97576.73
2023-01-17T11:42:35.003Z,97573.34
2023-01-17T11:46:43.069Z,97569.69
2023-01-17T11:50:58.640Z,97573.58
2023-01-17T11:55:06.435Z,97571.16
2023-01-17T11:59:29.772Z,97564.30
2023-01-17T12:04:11.210Z,97568.48
2023-01-17T12:08:28.239Z,97563.67
2023-01-17T12:13:07.361Z,97556.95
2023-01-17T12:17:24.914Z,97556.41
2023-01-17T12:21:42.972Z,97557.79
2023-01-17T12:26:00.887Z,97561.03
2023-01-17T12:30:19.818Z,97559.50
2023-01-17T12:34:31.901Z,97562.77
2023-01-17T12:38:41.075Z,97566.55
2023-01-17T12:42:54.201Z,97556.86
2023-01-17T12:47:04.661Z,97554.64
2023-01-17T12:51:19.169Z,97547.84
2023-01-17T12:55:34.100Z,97543.72
2023-01-17T12:59:48.110Z,97541.35
2023-01-17T13:04:04.830Z,97546.85
2023-01-17T13:08:21.242Z,97549.27
2023-01-17T13:12:33.092Z,97559.44
2023-01-17T13:16:43.736Z,97567.05
2023-01-17T13:21:16.198Z,97581.02
2023-01-17T13:25:35.980Z,97594.20
2023-01-17T13:29:53.953Z,97611.13
2023-01-17T13:34:25.058Z,97612.45
2023-01-17T13:38:42.526Z,97625.02
2023-01-17T13:42:55.436Z,97639.58
2023-01-17T13:47:06.583Z,97646.19
2023-01-17T13:51:14.479Z,97643.82
2023-01-17T13:55:48.207Z,97633.04
2023-01-17T13:59:57.619Z,97635.98
2023-01-17T14:04:09.579Z,97647.74
2023-01-17T14:08:20.885Z,97656.26
2023-01-17T14:12:33.767Z,97681.46
2023-01-17T14:16:44.883Z,97693.73
2023-01-17T14:21:10.942Z,97711.30
2023-01-17T14:25:21.151Z,97729.49
2023-01-17T14:29:52.589Z,97743.77
2023-01-17T14:34:15.240Z,97755.02
2023-01-17T14:38:25.370Z,97759.97
2023-01-17T14:42:34.395Z,97762.84
2023-01-17T14:46:41.943Z,97757.70
2023-01-17T14:50:51.915Z,97758.70
2023-01-17T14:54:59.485Z,97764.86
2023-01-17T14:59:17.342Z,97770.86
2023-01-17T15:03:25.932Z,97770.06
2023-01-17T15:07:33.825Z,97767.77
2023-01-17T15:11:42.430Z,97768.23
2023-01-17T15:15:50.099Z,97768.52
2023-01-17T15:20:05.050Z,97770.27
2023-01-17T15:24:18.695Z,97762.76
2023-01-17T15:28:27.116Z,97759.68
2023-01-17T15:32:35.298Z,97758.71
2023-01-17T15:36:43.253Z,97763.50
2023-01-17T15:40:50.929Z,97758.39
2023-01-17T15:45:00.268Z,97752.27
2023-01-17T15:49:22.973Z,97759.89
2023-01-17T15:53:35.942Z,97760.23
2023-01-17T15:57:47.624Z,97765.48
2023-01-17T16:01:59.646Z,97767.77
2023-01-17T16:06:45.808Z,97761.73
2023-01-17T16:10:58.230Z,97758.68
2023-01-17T16:15:12.751Z,97751.20
2023-01-17T16:19:21.559Z,97740.91
2023-01-17T16:23:30.848Z,97733.27
2023-01-17T16:27:39.673Z,97729.85
2023-01-17T16:31:48.116Z,97729.30
2023-01-17T16:35:56.228Z,97733.10
2023-01-17T16:40:05.711Z,97739.70
2023-01-17T16:44:13.833Z,97746.84
2023-01-17T16:48:22.671Z,97744.21
2023-01-17T16:52:30.497Z,97735.15
2023-01-17T16:56:38.438Z,97730.64
2023-01-17T17:00:46.525Z,97725.79
2023-01-17T17:04:54.438Z,97731.75
2023-01-17T17:09:03.923Z,97727.50
2023-01-17T17:13:12.926Z,97731.98
2023-01-17T17:17:22.227Z,97746.45
2023-01-17T17:21:32.000Z,97751.71
2023-01-17T17:25:39.505Z,97747.99
2023-01-17T17:29:46.933Z,97741.77
2023-01-17T17:33:58.529Z,97739.64
2023-01-17T17:38:07.095Z,97743.82
2023-01-17T17:42:15.920Z,97752.41
2023-01-17T17:46:25.508Z,97759.55
2023-01-17T17:50:33.292Z,97765.82
2023-01-17T17:54:41.491Z,97772.41
2023-01-17T17:58:49.966Z,97774.30
2023-01-17T18:02:57.891Z,97774.22
2023-01-17T18:07:07.413Z,97778.17
2023-01-17T18:11:18.680Z,97780.19
2023-01-17T18:15:26.540Z,97786.29
2023-01-17T18:19:34.623Z,97791.98
2023-01-17T18:23:43.893Z,97797.42
2023-01-17T18:27:52.512Z,97793.48
2023-01-17T18:32:00.752Z,97793.70
2023-01-17T18:36:13.763Z,97788.40
2023-01-17T18:40:23.685Z,97803.63
2023-01-17T18:44:31.432Z,97813.63
2023-01-17T18:48:40.563Z,97823.70
2023-01-17T18:52:49.417Z,97818.02
2023-01-17T18:56:59.364Z,97818.28
2023-01-17T19:01:12.971Z,97819.58
2023-01-17T19:05:21.766Z,97824.15
2023-01-17T19:09:32.465Z,97835.91
2023-01-17T19:13:41.933Z,97840.72
2023-01-17T19:17:52.563Z,97847.35
2023-01-17T19:22:00.920Z,97848.34
2023-01-17T19:26:10.000Z,97822.23
2023-01-17T19:30:19.561Z,97800.56
2023-01-17T19:34:28.108Z,97802.80
2023-01-17T19:38:38.123Z,97816.92
2023-01-17T19:42:46.189Z,97813.52
2023-01-17T19:46:54.640Z,97825.29
2023-01-17T19:51:09.563Z,97817.30
2023-01-17T19:55:22.238Z,97800.96
2023-01-17T19:59:30.222Z,97793.52
2023-01-17T20:03:39.864Z,97802.83
2023-01-17T20:07:48.712Z,97808.36
2023-01-17T20:11:56.886Z,97805.63
2023-01-17T20:16:14.065Z,97821.23
2023-01-17T20:20:23.020Z,97830.13
2023-01-17T20:24:30.931Z,97837.02
2023-01-17T20:28:39.896Z,97832.72
2023-01-17T20:32:48.689Z,97837.80
2023-01-17T20:36:59.995Z,97824.86
2023-01-17T20:41:07.539Z,97821.62
2023-01-17T20:45:16.335Z,97814.52
2023-01-17T20:49:24.096Z,97822.18
2023-01-17T20:53:32.777Z,97834.05
2023-01-17T20:57:41.682Z,97839.16
2023-01-17T21:01:50.496Z,97847.36
2023-01-17T21:06:03.138Z,97831.66
2023-01-17T21:10:12.929Z,97823.13
2023-01-17T21:14:21.906Z,97817.29
2023-01-17T21:18:32.258Z,97818.64
2023-01-17T21:22:40.399Z,97818.22
2023-01-17T21:26:51.773Z,97816.50
2023-01-17T21:31:00.490Z,97807.01
2023-01-17T21:35:09.708Z,97795.21
2023-01-17T21:39:19.973Z,97788.13
2023-01-17T21:43:28.253Z,97789.61
2023-01-17T21:47:36.352Z,97795.03
2023-01-17T21:52:02.192Z,97803.73
2023-01-17T21:56:30.450Z,97812.86
2023-01-17T22:00:39.038Z,97817.87
2023-01-17T22:04:46.822Z,97805.29
2023-01-17T22:08:54.711Z,97791.98
2023-01-17T22:13:06.952Z,97787.57
2023-01-17T22:17:14.988Z,97793.31
2023-01-17T22:21:23.759Z,97792.95
2023-01-17T22:25:32.555Z,97797.05
2023-01-17T22:29:40.755Z,97803.35
2023-01-17T22:33:53.021Z,97793.08
2023-01-17T22:38:01.933Z,97792.59
2023-01-17T22:42:10.154Z,97786.78
2023-01-17T22:46:23.054Z,97790.42
2023-01-17T22:50:31.107Z,97802.15
2023-01-17T22:54:39.139Z,97800.39
2023-01-17T22:58:48.999Z,97780.02
2023-01-17T23:02:56.984Z,97764.31
2023-01-17T23:07:04.713Z,97765.00
2023-01-17T23:11:43.956Z,97765.02
2023-01-17T23:16:09.910Z,97770.29
2023-01-17T23:20:18.145Z,97777.91
2023-01-17T23:24:26.159Z,97779.65
2023-01-17T23:28:33.681Z,97769.16
2023-01-17T23:32:44.673Z,97753.01
2023-01-17T23:36:52.292Z,97754.86
2023-01-17T23:41:26.349Z,97764.77
2023-01-17T23:45:33.937Z,97765.48
2023-01-17T23:49:43.534Z,97752.05
2023-01-17T23:53:57.343Z,97746.58
2023-01-17T23:58:05.285Z,97742.64
